Time;durP1;ratioP1;P1;durP2;ratioP2;P2;SDS_P1;SDS_P2;PMS_P1;PMS_P2;Temp;Humidity;BMP_temperature;BMP_pressure;BME280_temperature;BME280_humidity;BME280_pressure;Samples;Min_cycle;Max_cycle;Signal;HPM_P1;HPM_P2
2021/05/05 00:00:16;;;;;;;9.60;4.42;;;;;;;8.06;48.24;99030.15;1765039;79;21139;-40
2021/05/05 00:02:44;;;;;;;7.15;4.17;;;;;;;8.08;48.24;99027.89;1788544;79;21175;-39
2021/05/05 00:05:13;;;;;;;6.92;4.45;;;;;;;8.08;48.27;99021.14;1774894;79;21099;-40
2021/05/05 00:07:41;;;;;;;6.85;4.30;;;;;;;8.09;48.26;99017.29;1791946;79;21193;-40
2021/05/05 00:10:11;;;;;;;8.93;4.72;;;;;;;8.08;48.19;99019.80;1772842;78;21166;-40
2021/05/05 00:12:40;;;;;;;10.50;4.90;;;;;;;8.08;48.29;99018.45;1790859;79;21187;-40
2021/05/05 00:15:18;;;;;;;8.98;4.47;;;;;;;8.05;48.29;99011.03;1789302;79;21178;-40
2021/05/05 00:17:46;;;;;;;6.08;4.17;;;;;;;8.02;48.36;99014.44;1765427;79;21163;-40
2021/05/05 00:20:15;;;;;;;9.53;4.60;;;;;;;8.01;48.55;99010.17;1764743;79;21271;-40
2021/05/05 00:22:43;;;;;;;6.33;3.98;;;;;;;8.02;48.47;99013.09;1777179;79;21008;-40
2021/05/05 00:25:13;;;;;;;8.83;4.47;;;;;;;7.99;48.44;99007.02;1777052;79;21163;-40
2021/05/05 00:27:40;;;;;;;7.35;4.30;;;;;;;7.97;48.54;99006.61;1791327;79;21171;-40
2021/05/05 00:30:10;;;;;;;7.90;4.17;;;;;;;7.95;48.60;99006.16;1794895;79;21210;-40
2021/05/05 00:32:38;;;;;;;9.70;4.47;;;;;;;7.93;48.68;98999.00;1793002;79;21358;-40
2021/05/05 00:35:08;;;;;;;16.55;4.65;;;;;;;7.90;48.73;99002.95;1782233;79;21139;-40
2021/05/05 00:37:36;;;;;;;11.73;4.40;;;;;;;7.89;48.83;99010.84;1761967;79;21166;-40
2021/05/05 00:40:06;;;;;;;7.90;4.20;;;;;;;7.86;48.94;99006.91;1777935;79;21438;-40
2021/05/05 00:42:34;;;;;;;;;;;;;;;7.84;48.88;99002.45;1769953;79;21608;-40
2021/05/05 00:45:05;;;;;;;7.65;3.87;;;;;;;7.84;48.87;99007.85;1777575;79;21343;-40
2021/05/05 00:49:45;;;;;;;7.00;4.22;;;;;;;7.75;49.29;99003.17;1820710;77;22745;-40
2021/05/05 00:52:13;;;;;;;6.92;3.67;;;;;;;7.66;49.31;99006.61;1795114;79;20961;-40
2021/05/05 00:54:41;;;;;;;7.92;4.00;;;;;;;7.66;49.46;99006.05;1799410;77;21194;-40
2021/05/05 00:57:09;;;;;;;8.95;4.10;;;;;;;7.68;49.40;98998.41;1797757;78;20988;-39
2021/05/05 00:59:40;;;;;;;10.43;4.35;;;;;;;7.67;49.38;98998.74;1808383;78;21031;-39
2021/05/05 01:02:09;;;;;;;9.60;3.90;;;;;;;7.67;49.47;99004.14;1813531;78;21055;-39
2021/05/05 01:04:37;;;;;;;7.65;4.12;;;;;;;7.61;49.49;98985.29;1748861;82;21150;-39
2021/05/05 01:07:06;;;;;;;5.70;3.77;;;;;;;7.68;49.59;98993.57;1769828;80;21365;-39
2021/05/05 01:09:34;;;;;;;5.72;3.80;;;;;;;7.67;49.54;98993.34;1738820;80;21039;-39
2021/05/05 01:12:03;;;;;;;7.22;4.00;;;;;;;7.66;49.55;98996.61;1758455;81;20992;-39
2021/05/05 01:14:32;;;;;;;9.88;3.95;;;;;;;7.65;49.66;98993.69;1738460;81;21124;-39
2021/05/05 01:17:00;;;;;;;6.58;3.90;;;;;;;7.63;49.75;98988.44;1726547;81;21202;-39
2021/05/05 01:19:30;;;;;;;6.28;4.03;;;;;;;7.42;49.74;98963.84;1731648;81;21211;-39
2021/05/05 01:21:59;;;;;;;6.97;3.80;;;;;;;7.63;49.81;98983.04;1763947;80;21131;-40
2021/05/05 01:24:26;;;;;;;6.03;3.60;;;;;;;7.62;49.85;98982.81;1776761;79;21162;-39
2021/05/05 01:26:56;;;;;;;8.38;3.98;;;;;;;7.63;49.79;98983.04;1722596;80;21223;-39
2021/05/05 01:29:25;;;;;;;6.62;3.95;;;;;;;7.63;49.84;98984.39;1774770;80;21158;-39
2021/05/05 01:31:54;;;;;;;8.68;4.28;;;;;;;7.60;49.92;98980.46;1745483;81;21340;-40
2021/05/05 01:34:22;;;;;;;7.28;4.17;;;;;;;7.59;49.96;98980.27;1746672;81;21569;-39
2021/05/05 01:36:50;;;;;;;7.90;4.00;;;;;;;7.59;50.02;98980.83;1751666;81;21165;-40
2021/05/05 01:39:19;;;;;;;6.37;3.30;;;;;;;7.54;50.06;98964.91;1788519;80;21642;-39
2021/05/05 01:41:48;;;;;;;7.47;4.15;;;;;;;7.19;50.12;98918.96;1779168;80;21731;-40
2021/05/05 01:44:17;;;;;;;6.95;3.90;;;;;;;7.60;50.13;98979.70;1737711;81;21612;-39
2021/05/05 01:46:48;;;;;;;9.65;3.98;;;;;;;7.60;50.19;98974.31;1760243;81;21209;-40
2021/05/05 01:49:21;;;;;;;9.15;4.20;;;;;;;7.58;50.21;98971.16;1741141;81;21039;-39
2021/05/05 01:51:50;;;;;;;8.58;4.25;;;;;;;7.51;50.37;98958.84;1729908;81;21692;-39
2021/05/05 01:54:19;;;;;;;8.43;4.40;;;;;;;7.55;50.43;98969.17;1717846;82;21633;-39
2021/05/05 01:56:47;;;;;;;13.18;3.67;;;;;;;7.53;50.50;98967.38;1729026;81;21449;-39
2021/05/05 01:59:15;;;;;;;7.10;3.85;;;;;;;7.52;50.53;98974.69;1737542;82;21720;-39
2021/05/05 02:01:43;;;;;;;6.85;3.87;;;;;;;7.52;50.58;98966.59;1734050;80;21613;-40
2021/05/05 02:04:12;;;;;;;7.08;4.15;;;;;;;7.54;50.61;98967.59;1732305;82;21111;-39
2021/05/05 02:06:52;;;;;;;8.98;3.92;;;;;;;7.53;50.73;98961.98;1749928;80;21221;-39
2021/05/05 02:09:31;;;;;;;7.90;4.40;;;;;;;7.52;50.77;98963.11;1758093;80;21218;-39
2021/05/05 02:12:02;;;;;;;7.25;4.42;;;;;;;7.51;50.94;98961.53;1763241;80;21455;-39
2021/05/05 02:14:32;;;;;;;7.15;4.50;;;;;;;7.47;51.08;98960.67;1737214;82;21176;-40
2021/05/05 02:17:00;;;;;;;9.48;4.10;;;;;;;7.42;51.13;98958.45;1749505;80;21201;-39
2021/05/05 02:19:29;;;;;;;7.25;4.30;;;;;;;7.38;51.32;98953.55;1711301;81;21165;-39
2021/05/05 02:21:59;;;;;;;7.65;3.98;;;;;;;7.34;51.35;98948.63;1734470;81;21219;-39
2021/05/05 02:24:28;;;;;;;6.08;3.75;;;;;;;7.33;51.48;98945.71;1737604;82;21190;-39
2021/05/05 02:26:57;;;;;;;6.10;3.65;;;;;;;7.31;51.54;98941.22;1742197;80;21040;-39
2021/05/05 02:29:26;;;;;;;7.37;3.90;;;;;;;7.29;51.75;98933.27;1740280;80;21697;-39
2021/05/05 02:31:54;;;;;;;6.25;3.37;;;;;;;7.28;51.80;98937.09;1725470;81;21163;-40
2021/05/05 02:34:23;;;;;;;6.85;3.77;;;;;;;7.27;51.88;98939.00;1734495;81;21373;-39
2021/05/05 02:36:52;;;;;;;6.03;3.90;;;;;;;7.28;51.92;98935.19;1741822;80;21613;-39
2021/05/05 02:39:21;;;;;;;6.50;3.98;;;;;;;7.28;52.03;98940.58;1739470;81;21192;-39
2021/05/05 02:41:50;;;;;;;9.63;3.87;;;;;;;7.27;52.21;98933.61;1745272;80;28338;-39
2021/05/05 02:44:18;;;;;;;8.93;3.80;;;;;;;7.28;52.18;98933.84;1709622;82;21157;-39
2021/05/05 02:46:46;;;;;;;6.83;3.83;;;;;;;7.29;52.19;98928.67;1727618;82;21420;-39
2021/05/05 02:49:15;;;;;;;7.55;4.22;;;;;;;7.32;52.22;98927.96;1737108;81;21557;-40
2021/05/05 02:51:43;;;;;;;5.47;3.90;;;;;;;7.34;52.36;98928.41;1716075;82;21161;-39
2021/05/05 02:54:11;;;;;;;5.72;3.80;;;;;;;7.35;52.40;98926.50;1749056;80;21648;-39
2021/05/05 02:56:39;;;;;;;7.20;4.42;;;;;;;7.36;52.49;98929.39;1779502;79;21594;-39
2021/05/05 02:59:07;;;;;;;8.95;3.87;;;;;;;7.36;52.49;98924.78;1786554;79;21337;-39
2021/05/05 03:01:36;;;;;;;7.90;4.08;;;;;;;7.38;52.60;98919.05;1736334;80;21641;-39
2021/05/05 03:04:06;;;;;;;7.50;4.15;;;;;;;7.38;52.68;98914.44;1779143;79;21055;-39
2021/05/05 03:06:35;;;;;;;6.28;3.80;;;;;;;7.41;52.69;98932.61;1776600;79;21175;-39
2021/05/05 03:09:05;;;;;;;7.55;3.85;;;;;;;7.46;52.71;98914.59;1775272;80;21154;-39
2021/05/05 03:11:33;;;;;;;8.78;4.03;;;;;;;7.50;52.78;98914.14;1705408;83;21283;-39
2021/05/05 03:14:01;;;;;;;7.03;3.65;;;;;;;7.54;52.82;98922.53;1780787;79;21166;-39
2021/05/05 03:16:29;;;;;;;7.10;3.62;;;;;;;7.58;52.88;98914.52;1745913;81;21194;-39
2021/05/05 03:18:58;;;;;;;5.30;3.42;;;;;;;7.61;52.84;98915.94;1780489;80;21146;-39
2021/05/05 03:21:26;;;;;;;5.42;3.72;;;;;;;7.65;52.83;98917.39;1779753;80;21129;-39
2021/05/05 03:23:55;;;;;;;7.17;3.83;;;;;;;7.68;52.89;98915.33;1773721;80;21453;-39
2021/05/05 03:26:22;;;;;;;5.80;3.37;;;;;;;7.73;52.96;98920.45;1780683;79;21163;-41
2021/05/05 03:28:50;;;;;;;5.83;3.67;;;;;;;7.78;52.89;98918.84;1781165;79;21044;-39
2021/05/05 03:31:18;;;;;;;9.10;3.80;;;;;;;7.83;52.90;98911.83;1783406;79;21008;-40
2021/05/05 03:33:46;;;;;;;7.70;4.08;;;;;;;7.89;52.92;98919.09;1783675;79;21198;-40
2021/05/05 03:36:14;;;;;;;5.30;3.90;;;;;;;7.95;53.04;98916.30;1777177;79;22755;-40
2021/05/05 03:38:43;;;;;;;5.97;3.47;;;;;;;8.00;53.14;98909.28;1750324;79;21442;-40
2021/05/05 03:41:11;;;;;;;6.15;3.90;;;;;;;8.04;53.19;98911.48;1778025;79;21376;-40
2021/05/05 03:43:40;;;;;;;6.53;3.58;;;;;;;8.10;53.33;98906.03;1777918;79;21149;-41
2021/05/05 03:46:08;;;;;;;8.50;4.40;;;;;;;8.15;53.45;98909.80;1745513;81;21158;-40
2021/05/05 03:48:36;;;;;;;4.83;4.00;;;;;;;8.20;53.48;98913.02;1781900;79;21549;-40
2021/05/05 03:51:05;;;;;;;9.35;4.35;;;;;;;8.27;53.58;98906.98;1719595;82;21132;-40
2021/05/05 03:53:32;;;;;;;5.25;3.40;;;;;;;8.34;53.56;98909.06;1731327;81;21185;-45
2021/05/05 03:56:01;;;;;;;7.85;3.98;;;;;;;8.43;53.68;98909.63;1782818;79;21442;-40
2021/05/05 03:58:30;;;;;;;5.78;3.83;;;;;;;8.50;53.75;98906.52;1722799;82;21135;-40
2021/05/05 04:00:59;;;;;;;5.78;3.72;;;;;;;8.58;53.76;98901.45;1780497;80;21394;-40
2021/05/05 04:03:27;;;;;;;8.38;3.55;;;;;;;8.66;53.64;98899.12;1748294;80;21142;-40
2021/05/05 04:05:55;;;;;;;5.53;3.70;;;;;;;8.77;53.58;98903.34;1776929;79;21178;-40
2021/05/05 04:08:23;;;;;;;5.20;3.90;;;;;;;8.87;53.39;98895.22;1769915;80;21170;-40
2021/05/05 04:10:51;;;;;;;6.30;3.92;;;;;;;8.96;53.32;98903.31;1778957;79;21161;-40
2021/05/05 04:13:19;;;;;;;6.35;3.87;;;;;;;9.06;53.43;98898.66;1778398;79;22120;-40
2021/05/05 04:16:05;;;;;;;8.13;3.65;;;;;;;9.16;53.27;98896.71;1779190;79;21896;-40
2021/05/05 04:18:50;;;;;;;4.40;3.27;;;;;;;9.29;53.15;98900.03;1729042;82;21183;-40
2021/05/05 04:21:36;;;;;;;5.75;3.27;;;;;;;9.41;52.95;98886.88;1707858;83;21130;-40
2021/05/05 04:24:22;;;;;;;7.15;3.90;;;;;;;9.53;52.83;98889.39;1723854;83;21755;-40
2021/05/05 04:26:50;;;;;;;4.53;3.37;;;;;;;9.33;52.46;98831.89;1722209;83;21633;-40
2021/05/05 04:29:19;;;;;;;5.42;3.70;;;;;;;9.80;52.44;98883.39;1711752;82;21155;-40
2021/05/05 04:31:48;;;;;;;6.07;3.80;;;;;;;9.91;52.09;98887.83;1716374;82;21214;-40
2021/05/05 04:34:16;;;;;;;4.67;3.67;;;;;;;10.02;51.53;98890.68;1713929;82;21206;-40
2021/05/05 04:36:44;;;;;;;4.55;3.20;;;;;;;10.12;51.60;98894.68;1701872;82;21171;-40
2021/05/05 04:39:12;;;;;;;5.15;3.70;;;;;;;10.22;51.70;98885.91;1766459;79;21195;-40
2021/05/05 04:41:40;;;;;;;6.10;3.67;;;;;;;10.34;51.48;98880.27;1777700;79;21170;-40
2021/05/05 04:44:10;;;;;;;4.50;3.02;;;;;;;10.46;51.16;98876.73;1770836;80;21164;-40
2021/05/05 04:46:38;;;;;;;3.95;3.15;;;;;;;10.58;51.08;98877.06;1769075;81;21167;-40
2021/05/05 04:49:06;;;;;;;6.55;3.47;;;;;;;10.69;50.79;98877.97;1771980;79;21187;-40
2021/05/05 04:51:34;;;;;;;5.67;3.22;;;;;;;10.79;50.80;98877.88;1794252;79;21448;-40
2021/05/05 04:54:04;;;;;;;6.35;2.92;;;;;;;10.89;50.57;98875.84;1803699;79;21632;-40
2021/05/05 04:56:32;;;;;;;4.97;3.60;;;;;;;10.98;50.40;98872.25;1803241;79;21134;-40
2021/05/05 04:59:01;;;;;;;5.58;3.55;;;;;;;11.07;50.16;98875.42;1775874;79;21179;-40
2021/05/05 05:01:29;;;;;;;4.65;3.30;;;;;;;11.14;50.13;98864.63;1795446;79;21186;-40
2021/05/05 05:03:57;;;;;;;4.37;3.20;;;;;;;11.23;50.00;98869.76;1782726;79;21410;-40
2021/05/05 05:06:25;;;;;;;5.25;2.77;;;;;;;11.21;49.33;98857.91;1784109;79;21195;-40
2021/05/05 05:08:52;;;;;;;4.90;3.10;;;;;;;11.31;48.80;98867.30;1770480;80;21135;-42
2021/05/05 05:11:20;;;;;;;5.85;3.12;;;;;;;11.36;49.17;98858.80;1793717;79;21581;-41
2021/05/05 05:13:48;;;;;;;4.20;2.22;;;;;;;11.42;49.35;98857.30;1772271;81;21574;-41
2021/05/05 05:16:16;;;;;;;5.12;2.80;;;;;;;11.52;49.56;98845.72;1771736;81;22229;-43
2021/05/05 05:18:47;;;;;;;4.70;3.10;;;;;;;11.65;49.54;98848.92;1774969;79;21206;-41
2021/05/05 05:21:15;;;;;;;4.10;2.98;;;;;;;11.79;49.04;98852.33;1772029;79;21154;-42
2021/05/05 05:23:43;;;;;;;5.58;2.83;;;;;;;11.92;49.11;98844.05;1789780;79;21420;-42
2021/05/05 05:26:11;;;;;;;5.05;3.05;;;;;;;12.05;49.09;98827.63;1772223;81;21163;-42
2021/05/05 05:28:40;;;;;;;4.10;3.08;;;;;;;12.17;49.25;98837.57;1724022;82;21368;-42
2021/05/05 05:31:08;;;;;;;8.68;2.90;;;;;;;12.29;49.53;98825.59;1762213;81;21127;-42
2021/05/05 05:33:37;;;;;;;3.87;2.47;;;;;;;12.42;49.92;98824.07;1737495;82;21346;-42
2021/05/05 05:36:05;;;;;;;4.55;2.55;;;;;;;12.56;50.13;98819.25;1768173;81;21590;-42
2021/05/05 05:38:35;;;;;;;3.47;2.45;;;;;;;12.69;50.31;98823.15;1737848;82;21247;-42
2021/05/05 05:41:03;;;;;;;4.22;2.65;;;;;;;12.81;50.70;98822.02;1748758;81;21274;-42
2021/05/05 05:43:31;;;;;;;4.92;3.00;;;;;;;12.95;50.97;98827.46;1709796;82;21198;-42
2021/05/05 05:45:59;;;;;;;4.87;2.70;;;;;;;13.09;51.08;98817.94;1760120;81;21155;-42
2021/05/05 05:48:27;;;;;;;4.45;2.98;;;;;;;13.19;51.03;98829.44;1731926;82;21439;-42
2021/05/05 05:50:56;;;;;;;5.90;3.27;;;;;;;13.28;51.25;98816.80;1731860;82;21720;-42
2021/05/05 05:53:24;;;;;;;7.55;2.80;;;;;;;13.35;51.67;98818.94;1732732;80;21276;-42
2021/05/05 05:55:52;;;;;;;4.62;2.83;;;;;;;13.45;51.68;98807.84;1736436;82;21180;-42
2021/05/05 05:58:20;;;;;;;4.78;2.83;;;;;;;13.55;52.13;98804.91;1736245;82;21056;-42
2021/05/05 06:00:48;;;;;;;5.62;3.12;;;;;;;13.62;52.04;98800.21;1736097;82;21105;-42
2021/05/05 06:03:17;;;;;;;5.78;2.98;;;;;;;13.70;51.81;98808.55;1742941;80;21170;-42
2021/05/05 06:05:45;;;;;;;5.17;2.92;;;;;;;13.76;52.24;98813.02;1768110;81;21484;-42
2021/05/05 06:08:14;;;;;;;5.25;3.15;;;;;;;13.82;52.39;98810.86;1768786;80;21471;-42
2021/05/05 06:10:42;;;;;;;4.78;2.80;;;;;;;13.92;52.08;98809.27;1732352;81;21606;-42
2021/05/05 06:13:10;;;;;;;5.40;2.80;;;;;;;14.02;51.77;98815.86;1767707;80;21163;-42
2021/05/05 06:15:40;;;;;;;6.28;3.08;;;;;;;14.10;51.99;98815.42;1737830;82;21191;-42
2021/05/05 06:18:08;;;;;;;6.03;3.37;;;;;;;14.20;51.78;98824.16;1737490;82;21204;-42
2021/05/05 06:20:36;;;;;;;4.35;2.67;;;;;;;14.28;51.47;98817.48;1743563;81;21170;-42
2021/05/05 06:23:04;;;;;;;5.65;2.80;;;;;;;14.37;51.73;98821.78;1727353;82;21161;-42
2021/05/05 06:25:33;;;;;;;4.47;2.85;;;;;;;14.45;51.36;98819.19;1737577;82;21154;-42
2021/05/05 06:28:01;;;;;;;6.05;3.40;;;;;;;14.50;51.34;98811.96;1718520;82;21196;-42
2021/05/05 06:30:31;;;;;;;6.97;3.17;;;;;;;14.58;51.05;98801.97;1757815;81;21381;-42
2021/05/05 06:32:58;;;;;;;7.10;3.00;;;;;;;14.67;51.17;98809.70;1761481;80;21206;-42
2021/05/05 06:35:26;;;;;;;6.67;2.95;;;;;;;14.78;51.29;98806.32;1736315;82;21053;-42
2021/05/05 06:37:55;;;;;;;5.30;3.12;;;;;;;14.93;51.13;98811.87;1726344;82;21936;-43
2021/05/05 06:40:23;;;;;;;6.50;3.25;;;;;;;15.07;50.70;98813.70;1722712;82;21198;-42
2021/05/05 06:42:51;;;;;;;6.25;3.17;;;;;;;15.16;50.04;98805.23;1739962;82;21281;-42
2021/05/05 06:45:19;;;;;;;5.90;2.90;;;;;;;15.22;50.00;98806.95;1721591;82;21460;-42
2021/05/05 06:47:48;;;;;;;4.30;2.72;;;;;;;15.28;50.04;98814.91;1726804;81;21586;-41
2021/05/05 06:50:16;;;;;;;6.65;3.20;;;;;;;15.35;50.12;98808.58;1737991;81;21195;-41
2021/05/05 06:52:44;;;;;;;7.58;3.20;;;;;;;15.43;49.83;98808.72;1747941;82;21147;-41
2021/05/05 06:55:13;;;;;;;7.92;3.10;;;;;;;15.47;50.19;98807.50;1787557;79;21282;-40
2021/05/05 06:57:41;;;;;;;5.47;3.10;;;;;;;15.56;50.27;98803.73;1803681;79;21404;-41
2021/05/05 07:00:12;;;;;;;5.92;3.37;;;;;;;15.71;49.64;98805.73;1803669;79;20992;-41
2021/05/05 07:02:40;;;;;;;5.93;3.50;;;;;;;15.83;49.24;98798.36;1737719;82;21139;-41
2021/05/05 07:05:10;;;;;;;7.10;3.62;;;;;;;15.94;48.96;98805.85;1767890;81;21104;-41
2021/05/05 07:07:38;;;;;;;3.72;3.00;;;;;;;16.00;48.76;98801.49;1737486;82;21200;-41
2021/05/05 07:10:09;;;;;;;4.78;3.10;;;;;;;16.06;48.98;98805.33;1758572;81;21181;-41
2021/05/05 07:12:38;;;;;;;6.50;3.45;;;;;;;16.14;49.15;98800.54;1740263;81;21056;-41
2021/05/05 07:15:09;;;;;;;6.23;3.23;;;;;;;16.27;49.00;98803.49;1737575;82;21209;-40
2021/05/05 07:17:38;;;;;;;4.90;2.70;;;;;;;16.38;48.46;98804.91;1737458;82;21406;-41
2021/05/05 07:20:08;;;;;;;3.92;3.02;;;;;;;16.50;48.91;98806.33;1764656;80;21366;-41
2021/05/05 07:22:36;;;;;;;7.00;3.95;;;;;;;16.60;48.43;98799.97;1761640;80;21589;-40
2021/05/05 07:25:09;;;;;;;6.45;3.62;;;;;;;16.66;47.89;98812.56;1728208;82;21191;-41
2021/05/05 07:27:37;;;;;;;7.58;3.50;;;;;;;16.64;48.08;98802.05;1723649;81;21470;-41
2021/05/05 07:30:09;;;;;;;8.75;3.90;;;;;;;16.64;47.93;98795.20;1773892;80;21158;-41
2021/05/05 07:32:36;;;;;;;5.83;4.15;;;;;;;16.66;47.79;98802.39;1770172;80;21455;-41
2021/05/05 07:35:09;;;;;;;5.17;3.50;;;;;;;16.71;48.54;98805.26;1700110;84;21646;-41
2021/05/05 07:45:32;;;;;;;6.33;3.70;;;;;;;17.11;48.13;98788.41;1733646;81;21368;-41
2021/05/05 07:50:30;;;;;;;6.90;3.50;;;;;;;17.37;46.97;98774.66;1835371;78;22701;-40
2021/05/05 07:52:58;;;;;;;6.85;3.90;;;;;;;17.37;46.96;98776.62;1807680;79;21032;-41
2021/05/05 07:55:26;;;;;;;6.95;3.50;;;;;;;17.38;46.70;98787.73;1777810;79;21373;-41
2021/05/05 07:57:53;;;;;;;5.90;3.52;;;;;;;17.37;47.00;98790.31;1775782;80;21047;-41
2021/05/05 08:00:22;;;;;;;6.03;4.00;;;;;;;17.37;47.15;98777.39;1794839;79;21047;-41
2021/05/05 08:02:49;;;;;;;6.20;3.30;;;;;;;17.40;46.95;98781.25;1788909;79;21596;-40
2021/05/05 08:05:20;;;;;;;6.92;3.75;;;;;;;17.49;46.82;98771.10;1776021;80;21564;-40
2021/05/05 08:07:54;;;;;;;6.37;3.80;;;;;;;17.59;46.75;98770.94;1776063;80;21190;-40
2021/05/05 08:10:25;;;;;;;5.62;3.30;;;;;;;17.68;46.06;98775.86;1775797;80;21060;-40
2021/05/05 08:12:59;;;;;;;3.65;3.20;;;;;;;17.80;45.68;98769.77;1776360;79;21031;-40
2021/05/05 08:15:34;;;;;;;6.42;3.42;;;;;;;17.87;45.63;98771.58;1807871;79;21573;-41
2021/05/05 08:18:05;;;;;;;6.40;3.70;;;;;;;17.93;45.77;98767.92;1802539;79;21824;-41
2021/05/05 08:20:37;;;;;;;4.75;3.60;;;;;;;17.92;45.42;98771.08;1806203;79;21395;-40
2021/05/05 08:23:16;;;;;;;5.08;3.42;;;;;;;17.96;45.85;98758.09;1807739;79;21102;-40
2021/05/05 08:25:50;;;;;;;5.95;3.75;;;;;;;18.06;45.75;98757.08;1807853;79;21028;-40
2021/05/05 08:28:23;;;;;;;7.75;3.70;;;;;;;18.13;45.25;98757.72;1807631;79;21032;-41
2021/05/05 08:30:57;;;;;;;7.42;3.90;;;;;;;18.16;45.44;98760.97;1807795;79;21636;-41
2021/05/05 08:33:31;;;;;;;7.42;3.80;;;;;;;18.20;44.96;98771.89;1786720;79;21573;-41
2021/05/05 08:36:05;;;;;;;6.47;3.45;;;;;;;18.25;45.14;98756.27;1762949;79;21162;-40
2021/05/05 08:41:44;;;;;;;7.97;3.25;;;;;;;18.32;44.91;98746.52;1764197;80;21051;-40
2021/05/05 08:44:21;;;;;;;5.90;3.35;;;;;;;18.49;44.49;98763.18;1788624;79;21125;-40
2021/05/05 08:47:06;;;;;;;5.42;3.35;;;;;;;18.61;44.59;98744.70;1807591;79;21269;-40
2021/05/05 08:49:53;;;;;;;5.47;3.52;;;;;;;18.70;43.84;98737.84;1810887;79;21000;-40
2021/05/05 08:52:21;;;;;;;7.17;3.67;;;;;;;18.78;43.75;98744.73;1814283;79;22028;-41
2021/05/05 08:54:49;;;;;;;5.37;3.65;;;;;;;18.86;43.20;98746.87;1813285;79;21142;-40
2021/05/05 08:57:18;;;;;;;5.05;2.98;;;;;;;18.89;43.08;98746.59;1814179;78;21152;-41
2021/05/05 08:59:48;;;;;;;4.85;3.40;;;;;;;18.90;43.34;98748.14;1814240;79;21201;-41
2021/05/05 09:02:18;;;;;;;5.87;3.40;;;;;;;18.99;42.53;98745.56;1813584;79;21577;-41
2021/05/05 09:05:00;;;;;;;8.58;3.58;;;;;;;19.07;42.75;98741.45;1783067;79;21174;-41
2021/05/05 09:07:34;;;;;;;5.92;3.20;;;;;;;19.16;43.04;98751.23;1781660;80;21098;-40
2021/05/05 09:10:23;;;;;;;4.37;3.30;;;;;;;19.26;42.01;98739.19;1786253;77;21150;-40
2021/05/05 09:12:54;;;;;;;4.25;3.33;;;;;;;19.33;41.79;98734.86;1805539;79;21532;-40
2021/05/05 09:15:24;;;;;;;7.55;3.10;;;;;;;19.34;41.56;98739.77;1811680;79;21066;-40
2021/05/05 09:17:55;;;;;;;;;;;;;;;19.32;40.99;98733.91;1814113;79;21621;-41
2021/05/05 09:20:31;;;;;;;4.12;3.12;;;;;;;19.30;40.72;98730.84;1813896;79;20278;-41
2021/05/05 09:23:05;;;;;;;6.33;2.77;;;;;;;19.17;41.46;98728.64;1783468;79;21142;-41
2021/05/05 09:25:38;;;;;;;7.00;3.27;;;;;;;19.19;41.72;98731.12;1786686;79;21186;-41
2021/05/05 09:28:22;;;;;;;5.75;3.20;;;;;;;19.27;40.78;98720.09;1804203;77;21102;-42
2021/05/05 09:31:09;;;;;;;6.35;3.12;;;;;;;19.36;41.42;98721.65;1808321;79;21571;-42
2021/05/05 09:33:39;;;;;;;7.80;3.40;;;;;;;19.48;41.56;98719.56;1803495;79;21702;-43
2021/05/05 09:36:08;;;;;;;5.80;2.95;;;;;;;19.65;40.49;98716.77;1803535;79;21125;-42
2021/05/05 09:38:46;;;;;;;;;;;;;;;19.80;40.56;98712.41;1791555;79;21193;-42
2021/05/05 09:41:29;;;;;;;3.40;2.60;;;;;;;19.91;40.11;98702.63;1781683;80;20282;-42
2021/05/05 09:44:07;;;;;;;4.40;2.70;;;;;;;19.92;40.62;98695.15;1781639;79;21043;-42
2021/05/05 09:46:50;;;;;;;3.20;2.60;;;;;;;20.09;40.33;98697.96;1781582;80;21169;-43
2021/05/05 09:49:35;;;;;;;4.45;2.70;;;;;;;20.24;39.76;98701.05;1791716;79;21091;-42
2021/05/05 09:52:19;;;;;;;3.87;2.52;;;;;;;20.30;39.58;98686.34;1785064;79;21188;-42
2021/05/05 09:55:01;;;;;;;4.40;2.58;;;;;;;20.37;38.66;98694.39;1764601;81;21004;-42
2021/05/05 09:57:31;;;;;;;3.22;2.40;;;;;;;20.42;39.91;98685.41;1764743;81;21056;-43
2021/05/05 10:00:12;;;;;;;3.55;2.45;;;;;;;20.56;38.36;98689.86;1772823;79;21013;-42
2021/05/05 10:02:43;;;;;;;2.90;2.40;;;;;;;20.73;37.57;98683.59;1791917;79;21186;-42
2021/05/05 10:05:23;;;;;;;4.03;2.10;;;;;;;20.86;36.94;98669.20;1773386;79;21163;-43
2021/05/05 10:07:56;;;;;;;6.83;2.75;;;;;;;20.94;37.24;98680.73;1792439;79;21159;-43
2021/05/05 10:10:32;;;;;;;3.22;2.42;;;;;;;21.07;38.54;98688.35;1771820;79;21194;-43
2021/05/05 10:13:03;;;;;;;6.50;2.15;;;;;;;21.01;37.03;98686.02;1776567;79;21669;-43
2021/05/05 10:15:36;;;;;;;3.77;2.45;;;;;;;20.92;38.07;98681.17;1765466;79;21182;-43
2021/05/05 10:18:05;;;;;;;6.78;2.30;;;;;;;20.96;37.08;98692.10;1787292;79;21494;-41
2021/05/05 10:20:33;;;;;;;3.55;2.22;;;;;;;21.02;36.84;98684.18;1782044;79;21174;-41
2021/05/05 10:23:03;;;;;;;4.03;2.40;;;;;;;21.16;36.15;98682.34;1791207;79;21032;-41
2021/05/05 10:25:31;;;;;;;8.30;2.47;;;;;;;21.25;35.77;98681.03;1781682;79;21013;-41
2021/05/05 10:27:59;;;;;;;3.12;1.95;;;;;;;21.36;35.98;98668.25;1796003;79;21424;-41
2021/05/05 10:30:31;;;;;;;4.53;2.00;;;;;;;21.54;35.23;98669.02;1788579;79;21259;-41
2021/05/05 10:33:02;;;;;;;6.05;2.20;;;;;;;21.73;34.94;98669.28;1793620;78;20996;-41
2021/05/05 10:35:30;;;;;;;2.52;2.15;;;;;;;21.84;34.21;98665.49;1771700;79;21031;-41
2021/05/05 10:38:00;;;;;;;3.50;1.90;;;;;;;21.69;34.28;98628.02;1772033;79;21000;-41
2021/05/05 10:40:33;;;;;;;4.37;2.20;;;;;;;21.96;33.02;98663.91;1774508;79;21159;-40
2021/05/05 10:43:06;;;;;;;9.58;2.47;;;;;;;21.97;33.98;98663.47;1793700;79;21403;-41
2021/05/05 10:45:43;;;;;;;5.75;2.40;;;;;;;22.05;34.26;98661.19;1773027;79;21194;-41
2021/05/05 10:48:16;;;;;;;2.98;2.00;;;;;;;22.20;33.37;98656.66;1779392;79;21036;-40
2021/05/05 10:50:53;;;;;;;3.17;1.90;;;;;;;22.41;33.72;98644.00;1805422;77;21585;-41
2021/05/05 10:53:41;;;;;;;3.15;2.08;;;;;;;22.72;31.78;98659.89;1791637;79;21210;-41
2021/05/05 10:56:23;;;;;;;2.70;1.95;;;;;;;22.75;30.41;98653.44;1781558;80;21352;-40
2021/05/05 10:58:59;;;;;;;3.33;1.77;;;;;;;22.73;30.39;98653.14;1796671;79;21628;-41
2021/05/05 11:01:43;;;;;;;2.60;1.82;;;;;;;22.80;31.21;98639.65;1811203;77;21564;-41
2021/05/05 11:04:17;;;;;;;3.98;1.82;;;;;;;23.06;30.46;98642.88;1782208;79;21185;-41
2021/05/05 11:06:45;;;;;;;2.92;2.00;;;;;;;23.26;30.48;98650.09;1781213;80;21201;-40
2021/05/05 11:09:21;;;;;;;2.67;2.05;;;;;;;23.38;30.04;98650.56;1781318;80;21406;-40
2021/05/05 11:11:52;;;;;;;6.50;1.92;;;;;;;23.48;28.93;98643.05;1781874;79;21610;-40
2021/05/05 11:14:37;;;;;;;6.05;2.25;;;;;;;23.57;30.10;98651.33;1782210;79;21156;-40
2021/05/05 11:17:11;;;;;;;2.65;2.00;;;;;;;23.68;29.18;98646.83;1781277;80;21196;-42
2021/05/05 11:19:42;;;;;;;3.08;1.87;;;;;;;23.82;28.74;98638.48;1781162;80;21126;-42
2021/05/05 11:22:26;;;;;;;4.37;2.20;;;;;;;23.94;27.84;98628.45;1791593;79;21354;-40
2021/05/05 11:24:55;;;;;;;4.08;1.95;;;;;;;24.07;28.18;98624.86;1781555;79;21165;-40
2021/05/05 11:27:44;;;;;;;3.92;1.80;;;;;;;24.22;27.86;98622.97;1781437;80;21170;-40
2021/05/05 11:30:40;;;;;;;2.85;2.00;;;;;;;24.39;28.10;98617.20;1781513;80;21142;-40
2021/05/05 11:33:10;;;;;;;3.72;1.70;;;;;;;24.55;26.57;98616.78;1781631;79;21085;-40
2021/05/05 11:35:39;;;;;;;2.87;1.67;;;;;;;24.59;26.49;98607.66;1783458;79;21356;-40
2021/05/05 11:38:19;;;;;;;3.15;1.77;;;;;;;24.63;26.16;98613.82;1809443;79;21133;-40
2021/05/05 11:41:00;;;;;;;2.33;1.70;;;;;;;24.71;24.98;98620.38;1803747;79;21170;-40
2021/05/05 11:43:31;;;;;;;2.80;1.60;;;;;;;24.74;25.16;98610.48;1795279;79;21130;-40
2021/05/05 11:46:03;;;;;;;3.17;1.60;;;;;;;24.85;24.97;98609.34;1813647;78;21142;-40
2021/05/05 11:48:34;;;;;;;2.30;1.57;;;;;;;25.08;25.34;98606.39;1813664;79;21183;-40
2021/05/05 11:51:23;;;;;;;6.37;1.70;;;;;;;25.28;24.72;98609.30;1813044;79;21181;-40
2021/05/05 11:53:51;;;;;;;3.60;1.90;;;;;;;25.27;23.08;98638.28;1781496;80;21838;-40
2021/05/05 11:56:25;;;;;;;5.87;1.60;;;;;;;25.18;22.66;98607.84;1785130;79;21138;-40
2021/05/05 11:59:01;;;;;;;4.03;1.82;;;;;;;25.28;23.49;98600.97;1784557;79;21192;-40
2021/05/05 12:01:38;;;;;;;2.80;1.70;;;;;;;25.39;21.73;98589.31;1777974;79;21375;-41
2021/05/05 12:04:21;;;;;;;4.22;1.50;;;;;;;25.33;22.46;98600.31;1797752;79;21114;-40
2021/05/05 12:06:57;;;;;;;2.35;1.60;;;;;;;25.21;22.79;98590.27;1788748;79;21146;-40
2021/05/05 12:09:36;;;;;;;3.27;1.62;;;;;;;25.14;21.23;98579.53;1801432;79;21182;-41